sensor_id;sensor_type;location;lat;lon;timestamp;pressure;altitude;pressure_sealevel;temperature;humidity
71126;BME280;58785;55.566;38.058;2023-04-20T00:02:14;101017.16;;;7.43;51.56
71126;BME280;58785;55.566;38.058;2023-04-20T00:04:40;101002.28;;;7.40;51.77
71126;BME280;58785;55.566;38.058;2023-04-20T00:07:06;101002.28;;;7.40;50.69
71126;BME280;58785;55.566;38.058;2023-04-20T00:09:32;101013.66;;;7.42;50.85
71126;BME280;58785;55.566;38.058;2023-04-20T00:11:58;101010.47;;;7.37;51.97
71126;BME280;58785;55.566;38.058;2023-04-20T00:14:23;101009.72;;;7.35;51.43
71126;BME280;58785;55.566;38.058;2023-04-20T00:16:49;101009.81;;;7.34;51.82
71126;BME280;58785;55.566;38.058;2023-04-20T00:19:15;100991.88;;;7.25;51.56
71126;BME280;58785;55.566;38.058;2023-04-20T00:21:42;101007.34;;;7.31;52.19
71126;BME280;58785;55.566;38.058;2023-04-20T00:24:07;101000.56;;;7.27;52.28
71126;BME280;58785;55.566;38.058;2023-04-20T00:26:33;101008.63;;;7.25;51.81
71126;BME280;58785;55.566;38.058;2023-04-20T00:28:59;100994.94;;;7.18;51.91
71126;BME280;58785;55.566;38.058;2023-04-20T00:31:25;101003.63;;;7.20;51.69
71126;BME280;58785;55.566;38.058;2023-04-20T00:33:50;100998.66;;;7.16;52.46
71126;BME280;58785;55.566;38.058;2023-04-20T00:36:16;101001.59;;;7.11;52.55
71126;BME280;58785;55.566;38.058;2023-04-20T00:38:42;100986.41;;;7.01;52.77
71126;BME280;58785;55.566;38.058;2023-04-20T00:41:07;100996.84;;;7.04;52.92
71126;BME280;58785;55.566;38.058;2023-04-20T00:43:33;100988.13;;;7.02;52.77
71126;BME280;58785;55.566;38.058;2023-04-20T00:45:59;100974.44;;;6.95;52.33
71126;BME280;58785;55.566;38.058;2023-04-20T00:48:24;100980.25;;;7.00;53.10
71126;BME280;58785;55.566;38.058;2023-04-20T00:50:51;100968.38;;;6.93;53.15
71126;BME280;58785;55.566;38.058;2023-04-20T00:53:17;100967.53;;;6.93;52.95
71126;BME280;58785;55.566;38.058;2023-04-20T00:55:44;100976.88;;;6.98;52.28
71126;BME280;58785;55.566;38.058;2023-04-20T00:58:10;100983.75;;;7.01;52.30
71126;BME280;58785;55.566;38.058;2023-04-20T01:00:38;100974.22;;;6.98;52.50
71126;BME280;58785;55.566;38.058;2023-04-20T01:03:06;100963.09;;;6.93;52.34
71126;BME280;58785;55.566;38.058;2023-04-20T01:05:32;100977.72;;;6.99;52.74
71126;BME280;58785;55.566;38.058;2023-04-20T01:07:58;100970.94;;;6.95;52.53
71126;BME280;58785;55.566;38.058;2023-04-20T01:10:23;100967.00;;;6.87;52.62
71126;BME280;58785;55.566;38.058;2023-04-20T01:12:49;100972.06;;;6.90;52.87
71126;BME280;58785;55.566;38.058;2023-04-20T01:15:15;100969.19;;;6.81;53.00
71126;BME280;58785;55.566;38.058;2023-04-20T01:17:41;100964.22;;;6.76;53.75
71126;BME280;58785;55.566;38.058;2023-04-20T01:20:09;100974.50;;;6.81;53.26
71126;BME280;58785;55.566;38.058;2023-04-20T01:22:48;100968.25;;;6.82;53.85
71126;BME280;58785;55.566;38.058;2023-04-20T01:25:15;100953.59;;;6.76;53.63
71126;BME280;58785;55.566;38.058;2023-04-20T01:27:41;100956.88;;;6.80;53.61
71126;BME280;58785;55.566;38.058;2023-04-20T01:30:08;100959.84;;;6.75;53.77
71126;BME280;58785;55.566;38.058;2023-04-20T01:32:33;100955.50;;;6.74;52.95
71126;BME280;58785;55.566;38.058;2023-04-20T01:35:00;100954.44;;;6.77;53.66
71126;BME280;58785;55.566;38.058;2023-04-20T01:37:26;100959.66;;;6.78;53.74
71126;BME280;58785;55.566;38.058;2023-04-20T01:39:52;100961.56;;;6.76;53.53
71126;BME280;58785;55.566;38.058;2023-04-20T01:42:17;100947.66;;;6.73;53.36
71126;BME280;58785;55.566;38.058;2023-04-20T01:44:43;100960.72;;;6.76;53.13
71126;BME280;58785;55.566;38.058;2023-04-20T01:47:08;100947.84;;;6.70;53.18
71126;BME280;58785;55.566;38.058;2023-04-20T01:49:34;100949.38;;;6.74;52.75
71126;BME280;58785;55.566;38.058;2023-04-20T01:52:00;100956.56;;;6.72;52.49
71126;BME280;58785;55.566;38.058;2023-04-20T01:54:25;100949.47;;;6.72;52.69
71126;BME280;58785;55.566;38.058;2023-04-20T01:56:51;100947.97;;;6.68;52.94
71126;BME280;58785;55.566;38.058;2023-04-20T01:59:17;100944.25;;;6.71;52.52
71126;BME280;58785;55.566;38.058;2023-04-20T02:01:42;100933.84;;;6.68;53.12
71126;BME280;58785;55.566;38.058;2023-04-20T02:04:08;100933.13;;;6.66;53.19
71126;BME280;58785;55.566;38.058;2023-04-20T02:06:33;100929.84;;;6.62;53.48
71126;BME280;58785;55.566;38.058;2023-04-20T02:08:59;100940.31;;;6.63;52.97
71126;BME280;58785;55.566;38.058;2023-04-20T02:11:25;100934.47;;;6.58;53.32
71126;BME280;58785;55.566;38.058;2023-04-20T02:13:51;100942.75;;;6.54;53.81
71126;BME280;58785;55.566;38.058;2023-04-20T02:16:17;100941.88;;;6.53;53.88
71126;BME280;58785;55.566;38.058;2023-04-20T02:18:44;100946.44;;;6.51;53.82
71126;BME280;58785;55.566;38.058;2023-04-20T02:21:12;100938.50;;;6.51;54.14
71126;BME280;58785;55.566;38.058;2023-04-20T02:23:38;100945.38;;;6.54;54.37
71126;BME280;58785;55.566;38.058;2023-04-20T02:26:03;100946.13;;;6.56;54.15
71126;BME280;58785;55.566;38.058;2023-04-20T02:28:29;100928.44;;;6.56;53.58
71126;BME280;58785;55.566;38.058;2023-04-20T02:30:55;100929.06;;;6.60;53.51
71126;BME280;58785;55.566;38.058;2023-04-20T02:33:20;100934.91;;;6.65;53.98
71126;BME280;58785;55.566;38.058;2023-04-20T02:35:47;100934.59;;;6.70;53.32
71126;BME280;58785;55.566;38.058;2023-04-20T02:38:13;100951.81;;;6.77;53.97
71126;BME280;58785;55.566;38.058;2023-04-20T02:40:39;100937.69;;;6.76;53.81
71126;BME280;58785;55.566;38.058;2023-04-20T02:43:04;100933.25;;;6.89;52.95
71126;BME280;58785;55.566;38.058;2023-04-20T02:45:31;100933.53;;;7.12;53.20
71126;BME280;58785;55.566;38.058;2023-04-20T02:47:57;100923.31;;;7.18;53.02
71126;BME280;58785;55.566;38.058;2023-04-20T02:50:23;100937.97;;;7.37;52.89
71126;BME280;58785;55.566;38.058;2023-04-20T02:52:48;100938.59;;;7.53;52.48
71126;BME280;58785;55.566;38.058;2023-04-20T02:55:14;100931.56;;;7.77;52.66
71126;BME280;58785;55.566;38.058;2023-04-20T02:57:40;100929.69;;;8.03;52.14
71126;BME280;58785;55.566;38.058;2023-04-20T03:00:06;100931.16;;;8.31;52.34
71126;BME280;58785;55.566;38.058;2023-04-20T03:02:33;100927.69;;;8.55;51.93
71126;BME280;58785;55.566;38.058;2023-04-20T03:04:59;100929.94;;;8.72;51.78
71126;BME280;58785;55.566;38.058;2023-04-20T03:07:24;100931.09;;;8.92;51.81
71126;BME280;58785;55.566;38.058;2023-04-20T03:09:50;100919.78;;;9.12;51.04
71126;BME280;58785;55.566;38.058;2023-04-20T03:12:16;100917.28;;;9.33;50.95
71126;BME280;58785;55.566;38.058;2023-04-20T03:14:43;100924.28;;;9.57;50.87
71126;BME280;58785;55.566;38.058;2023-04-20T03:17:08;100915.81;;;9.74;50.19
71126;BME280;58785;55.566;38.058;2023-04-20T03:19:34;100914.00;;;9.86;49.80
71126;BME280;58785;55.566;38.058;2023-04-20T03:22:01;100907.06;;;9.94;50.13
71126;BME280;58785;55.566;38.058;2023-04-20T03:24:26;100921.94;;;10.08;49.23
71126;BME280;58785;55.566;38.058;2023-04-20T03:26:52;100913.59;;;10.13;49.45
71126;BME280;58785;55.566;38.058;2023-04-20T03:29:18;100915.72;;;10.30;48.84
71126;BME280;58785;55.566;38.058;2023-04-20T03:31:43;100911.47;;;10.39;48.13
71126;BME280;58785;55.566;38.058;2023-04-20T03:34:09;100919.50;;;10.59;48.31
71126;BME280;58785;55.566;38.058;2023-04-20T03:36:35;100911.97;;;10.64;48.03
71126;BME280;58785;55.566;38.058;2023-04-20T03:39:01;100913.13;;;10.72;47.40
71126;BME280;58785;55.566;38.058;2023-04-20T03:41:27;100919.72;;;10.88;47.59
71126;BME280;58785;55.566;38.058;2023-04-20T03:43:52;100917.84;;;11.00;46.86
71126;BME280;58785;55.566;38.058;2023-04-20T03:46:18;100911.84;;;11.08;47.14
71126;BME280;58785;55.566;38.058;2023-04-20T03:48:43;100914.16;;;11.12;46.81
71126;BME280;58785;55.566;38.058;2023-04-20T03:51:09;100911.41;;;11.23;46.73
71126;BME280;58785;55.566;38.058;2023-04-20T03:53:36;100916.59;;;11.25;46.08
71126;BME280;58785;55.566;38.058;2023-04-20T03:56:01;100913.06;;;11.45;46.15
71126;BME280;58785;55.566;38.058;2023-04-20T03:58:27;100914.09;;;11.54;45.50
71126;BME280;58785;55.566;38.058;2023-04-20T04:01:01;100908.00;;;11.52;45.84
71126;BME280;58785;55.566;38.058;2023-04-20T04:03:27;100907.94;;;11.63;46.05
71126;BME280;58785;55.566;38.058;2023-04-20T04:05:53;100904.19;;;11.75;45.85
71126;BME280;58785;55.566;38.058;2023-04-20T04:08:18;100903.78;;;11.80;45.98
71126;BME280;58785;55.566;38.058;2023-04-20T04:10:44;100897.72;;;11.78;45.93
71126;BME280;58785;55.566;38.058;2023-04-20T04:13:10;100902.69;;;11.83;45.29
71126;BME280;58785;55.566;38.058;2023-04-20T04:15:35;100897.59;;;11.79;45.34
71126;BME280;58785;55.566;38.058;2023-04-20T04:18:01;100891.66;;;11.76;45.21
71126;BME280;58785;55.566;38.058;2023-04-20T04:20:27;100898.63;;;11.88;44.84
71126;BME280;58785;55.566;38.058;2023-04-20T04:22:52;100893.41;;;11.87;45.36
71126;BME280;58785;55.566;38.058;2023-04-20T04:25:18;100897.50;;;11.91;44.57
71126;BME280;58785;55.566;38.058;2023-04-20T04:27:47;100884.13;;;11.91;44.39
71126;BME280;58785;55.566;38.058;2023-04-20T04:30:13;100892.00;;;11.92;44.81
71126;BME280;58785;55.566;38.058;2023-04-20T04:32:40;100889.25;;;12.03;44.80
71126;BME280;58785;55.566;38.058;2023-04-20T04:35:06;100882.94;;;12.14;44.45
71126;BME280;58785;55.566;38.058;2023-04-20T04:37:32;100890.53;;;12.19;44.42
71126;BME280;58785;55.566;38.058;2023-04-20T04:39:58;100884.47;;;12.26;44.29
71126;BME280;58785;55.566;38.058;2023-04-20T04:42:24;100891.09;;;12.51;44.28
71126;BME280;58785;55.566;38.058;2023-04-20T04:44:49;100889.41;;;12.70;43.86
71126;BME280;58785;55.566;38.058;2023-04-20T04:47:16;100888.84;;;12.76;44.18
71126;BME280;58785;55.566;38.058;2023-04-20T04:49:44;100885.16;;;12.86;43.69
71126;BME280;58785;55.566;38.058;2023-04-20T04:52:10;100886.97;;;13.05;43.90
71126;BME280;58785;55.566;38.058;2023-04-20T04:54:36;100884.28;;;13.15;43.48
71126;BME280;58785;55.566;38.058;2023-04-20T04:57:01;100882.88;;;13.20;43.22
71126;BME280;58785;55.566;38.058;2023-04-20T04:59:27;100883.41;;;13.34;43.37
71126;BME280;58785;55.566;38.058;2023-04-20T05:01:53;100883.34;;;13.53;42.75
71126;BME280;58785;55.566;38.058;2023-04-20T05:04:18;100874.63;;;13.69;42.44
71126;BME280;58785;55.566;38.058;2023-04-20T05:06:44;100881.75;;;13.88;42.56
71126;BME280;58785;55.566;38.058;2023-04-20T05:09:10;100875.31;;;13.98;42.45
71126;BME280;58785;55.566;38.058;2023-04-20T05:11:36;100867.06;;;14.09;42.49
71126;BME280;58785;55.566;38.058;2023-04-20T05:14:02;100884.69;;;14.12;41.85
71126;BME280;58785;55.566;38.058;2023-04-20T05:16:28;100878.09;;;14.06;41.74
71126;BME280;58785;55.566;38.058;2023-04-20T05:18:54;100874.34;;;14.17;41.93
71126;BME280;58785;55.566;38.058;2023-04-20T05:21:19;100873.13;;;14.29;41.92
71126;BME280;58785;55.566;38.058;2023-04-20T05:23:45;100865.63;;;14.51;41.59
71126;BME280;58785;55.566;38.058;2023-04-20T05:26:11;100871.00;;;14.69;41.35
71126;BME280;58785;55.566;38.058;2023-04-20T05:28:37;100866.69;;;14.76;41.55
71126;BME280;58785;55.566;38.058;2023-04-20T05:31:03;100864.09;;;14.66;41.17
71126;BME280;58785;55.566;38.058;2023-04-20T05:33:29;100867.16;;;14.71;41.38
71126;BME280;58785;55.566;38.058;2023-04-20T05:35:58;100867.66;;;14.92;41.44
71126;BME280;58785;55.566;38.058;2023-04-20T05:38:23;100867.53;;;15.02;40.65
71126;BME280;58785;55.566;38.058;2023-04-20T05:40:50;100866.69;;;15.02;40.23
71126;BME280;58785;55.566;38.058;2023-04-20T05:43:16;100864.84;;;15.02;40.34
71126;BME280;58785;55.566;38.058;2023-04-20T05:45:47;100855.50;;;15.06;40.12
71126;BME280;58785;55.566;38.058;2023-04-20T05:48:13;100864.63;;;15.13;40.22
71126;BME280;58785;55.566;38.058;2023-04-20T05:50:39;100864.47;;;15.23;40.33
71126;BME280;58785;55.566;38.058;2023-04-20T05:53:04;100870.63;;;15.33;40.20
71126;BME280;58785;55.566;38.058;2023-04-20T05:55:30;100867.94;;;15.41;40.03
71126;BME280;58785;55.566;38.058;2023-04-20T05:57:56;100861.09;;;15.47;39.59
71126;BME280;58785;55.566;38.058;2023-04-20T06:00:22;100865.41;;;15.66;39.48
71126;BME280;58785;55.566;38.058;2023-04-20T06:02:49;100863.91;;;15.71;39.59
71126;BME280;58785;55.566;38.058;2023-04-20T06:05:17;100868.31;;;15.80;39.40
71126;BME280;58785;55.566;38.058;2023-04-20T06:07:45;100864.66;;;15.90;39.51
71126;BME280;58785;55.566;38.058;2023-04-20T06:10:13;100860.13;;;15.90;39.34
71126;BME280;58785;55.566;38.058;2023-04-20T06:12:40;100859.47;;;15.96;39.13
71126;BME280;58785;55.566;38.058;2023-04-20T06:18:47;100860.72;;;16.51;38.72
71126;BME280;58785;55.566;38.058;2023-04-20T06:21:13;100860.59;;;16.69;38.49
71126;BME280;58785;55.566;38.058;2023-04-20T06:23:40;100856.06;;;16.85;38.26
71126;BME280;58785;55.566;38.058;2023-04-20T06:26:06;100846.94;;;16.94;38.19
71126;BME280;58785;55.566;38.058;2023-04-20T06:28:34;100851.16;;;16.97;37.88
71126;BME280;58785;55.566;38.058;2023-04-20T06:31:01;100853.66;;;17.07;37.85
71126;BME280;58785;55.566;38.058;2023-04-20T06:33:27;100852.63;;;17.16;37.76
71126;BME280;58785;55.566;38.058;2023-04-20T06:35:53;100852.25;;;17.27;37.75
71126;BME280;58785;55.566;38.058;2023-04-20T06:38:23;100848.03;;;17.33;37.78
71126;BME280;58785;55.566;38.058;2023-04-20T06:40:52;100845.31;;;17.41;37.38
71126;BME280;58785;55.566;38.058;2023-04-20T06:43:18;100848.63;;;17.51;37.11
71126;BME280;58785;55.566;38.058;2023-04-20T06:45:43;100835.66;;;17.55;36.91
71126;BME280;58785;55.566;38.058;2023-04-20T06:48:09;100839.13;;;17.63;36.89
71126;BME280;58785;55.566;38.058;2023-04-20T06:50:35;100829.22;;;17.64;36.86
71126;BME280;58785;55.566;38.058;2023-04-20T06:53:02;100841.66;;;17.73;36.75
71126;BME280;58785;55.566;38.058;2023-04-20T06:55:28;100834.25;;;17.75;36.52
71126;BME280;58785;55.566;38.058;2023-04-20T06:57:53;100836.22;;;17.81;36.08
71126;BME280;58785;55.566;38.058;2023-04-20T07:00:19;100830.13;;;17.87;35.98
71126;BME280;58785;55.566;38.058;2023-04-20T07:02:49;100823.56;;;17.81;35.73
71126;BME280;58785;55.566;38.058;2023-04-20T07:05:16;100825.41;;;17.89;35.36
71126;BME280;58785;55.566;38.058;2023-04-20T07:07:42;100825.50;;;18.04;35.49
71126;BME280;58785;55.566;38.058;2023-04-20T07:10:10;100830.88;;;18.04;35.36
71126;BME280;58785;55.566;38.058;2023-04-20T07:12:37;100820.25;;;18.02;35.41
71126;BME280;58785;55.566;38.058;2023-04-20T07:15:05;100817.25;;;17.97;35.24
71126;BME280;58785;55.566;38.058;2023-04-20T07:17:33;100819.97;;;18.20;35.26
71126;BME280;58785;55.566;38.058;2023-04-20T07:19:59;100809.34;;;18.42;34.98
71126;BME280;58785;55.566;38.058;2023-04-20T07:22:33;100818.44;;;18.41;34.46
71126;BME280;58785;55.566;38.058;2023-04-20T07:25:08;100801.59;;;18.38;34.53
71126;BME280;58785;55.566;38.058;2023-04-20T07:27:37;100807.78;;;18.47;34.16
71126;BME280;58785;55.566;38.058;2023-04-20T07:30:04;100804.72;;;18.27;34.00
71126;BME280;58785;55.566;38.058;2023-04-20T07:32:36;100794.13;;;18.26;34.05
71126;BME280;58785;55.566;38.058;2023-04-20T07:35:03;100795.06;;;18.33;33.90
71126;BME280;58785;55.566;38.058;2023-04-20T07:37:33;100797.69;;;18.41;33.63
71126;BME280;58785;55.566;38.058;2023-04-20T07:40:00;100786.94;;;18.33;33.64
71126;BME280;58785;55.566;38.058;2023-04-20T07:42:26;100797.16;;;18.46;33.40
71126;BME280;58785;55.566;38.058;2023-04-20T07:44:51;100790.16;;;18.51;33.28
71126;BME280;58785;55.566;38.058;2023-04-20T07:47:17;100781.22;;;18.51;32.88
71126;BME280;58785;55.566;38.058;2023-04-20T07:49:43;100789.69;;;18.71;32.90
71126;BME280;58785;55.566;38.058;2023-04-20T07:52:08;100780.47;;;18.80;32.65
71126;BME280;58785;55.566;38.058;2023-04-20T07:54:35;100777.88;;;18.49;32.17
71126;BME280;58785;55.566;38.058;2023-04-20T07:57:01;100784.06;;;18.57;32.26
71126;BME280;58785;55.566;38.058;2023-04-20T07:59:28;100776.94;;;18.64;32.00
71126;BME280;58785;55.566;38.058;2023-04-20T08:01:59;100777.59;;;18.81;32.03
71126;BME280;58785;55.566;38.058;2023-04-20T08:04:26;100778.34;;;18.90;31.63
71126;BME280;58785;55.566;38.058;2023-04-20T08:06:52;100777.63;;;18.96;31.45
71126;BME280;58785;55.566;38.058;2023-04-20T08:09:17;100764.38;;;19.01;31.40
71126;BME280;58785;55.566;38.058;2023-04-20T08:11:43;100766.72;;;19.04;31.05
71126;BME280;58785;55.566;38.058;2023-04-20T08:14:13;100758.13;;;19.01;31.16
71126;BME280;58785;55.566;38.058;2023-04-20T08:16:40;100755.22;;;19.02;31.16
71126;BME280;58785;55.566;38.058;2023-04-20T08:19:06;100753.94;;;18.98;31.06
71126;BME280;58785;55.566;38.058;2023-04-20T08:21:36;100760.84;;;19.01;31.24
71126;BME280;58785;55.566;38.058;2023-04-20T08:24:03;100759.44;;;18.75;30.65
71126;BME280;58785;55.566;38.058;2023-04-20T08:26:30;100751.50;;;18.74;30.85
71126;BME280;58785;55.566;38.058;2023-04-20T08:28:56;100746.56;;;18.92;30.97
71126;BME280;58785;55.566;38.058;2023-04-20T08:31:21;100745.16;;;19.11;30.77
71126;BME280;58785;55.566;38.058;2023-04-20T08:33:47;100745.91;;;19.19;30.86
71126;BME280;58785;55.566;38.058;2023-04-20T08:36:13;100752.34;;;19.18;31.14
71126;BME280;58785;55.566;38.058;2023-04-20T08:38:39;100755.97;;;19.26;30.65
71126;BME280;58785;55.566;38.058;2023-04-20T08:41:05;100754.03;;;19.34;30.52
71126;BME280;58785;55.566;38.058;2023-04-20T08:43:31;100753.78;;;19.50;30.74
71126;BME280;58785;55.566;38.058;2023-04-20T08:45:58;100751.41;;;19.56;30.49
71126;BME280;58785;55.566;38.058;2023-04-20T08:48:25;100749.59;;;19.48;30.57
71126;BME280;58785;55.566;38.058;2023-04-20T08:50:53;100746.25;;;19.46;30.53
71126;BME280;58785;55.566;38.058;2023-04-20T08:53:19;100748.13;;;19.45;30.74
71126;BME280;58785;55.566;38.058;2023-04-20T08:55:44;100737.75;;;19.49;30.55
71126;BME280;58785;55.566;38.058;2023-04-20T08:58:12;100743.34;;;19.47;30.47
71126;BME280;58785;55.566;38.058;2023-04-20T09:00:48;100735.50;;;19.52;30.64
71126;BME280;58785;55.566;38.058;2023-04-20T09:03:14;100740.31;;;19.72;30.83
71126;BME280;58785;55.566;38.058;2023-04-20T09:05:40;100723.41;;;19.85;30.34
71126;BME280;58785;55.566;38.058;2023-04-20T09:08:05;100723.09;;;19.94;29.90
71126;BME280;58785;55.566;38.058;2023-04-20T09:10:42;100721.72;;;20.05;30.24
71126;BME280;58785;55.566;38.058;2023-04-20T09:13:20;100724.88;;;19.87;29.71
71126;BME280;58785;55.566;38.058;2023-04-20T09:15:45;100717.47;;;19.74;30.12
71126;BME280;58785;55.566;38.058;2023-04-20T09:18:13;100728.84;;;19.70;29.80
71126;BME280;58785;55.566;38.058;2023-04-20T09:20:39;100721.50;;;19.64;29.93
71126;BME280;58785;55.566;38.058;2023-04-20T09:23:18;100725.59;;;19.74;29.67
71126;BME280;58785;55.566;38.058;2023-04-20T09:25:51;100713.25;;;19.72;29.58
71126;BME280;58785;55.566;38.058;2023-04-20T09:28:18;100714.19;;;19.79;30.40
71126;BME280;58785;55.566;38.058;2023-04-20T09:30:45;100703.47;;;19.92;30.58
71126;BME280;58785;55.566;38.058;2023-04-20T09:33:12;100702.78;;;20.05;30.06
71126;BME280;58785;55.566;38.058;2023-04-20T09:35:40;100704.69;;;20.11;29.88
71126;BME280;58785;55.566;38.058;2023-04-20T09:38:07;100709.84;;;20.06;29.71
71126;BME280;58785;55.566;38.058;2023-04-20T09:40:33;100701.47;;;20.01;29.79
71126;BME280;58785;55.566;38.058;2023-04-20T09:43:17;100699.47;;;19.88;29.77
71126;BME280;58785;55.566;38.058;2023-04-20T09:45:43;100699.69;;;19.65;29.86
71126;BME280;58785;55.566;38.058;2023-04-20T09:48:09;100691.88;;;19.56;30.15
71126;BME280;58785;55.566;38.058;2023-04-20T09:50:36;100688.13;;;19.57;29.99
71126;BME280;58785;55.566;38.058;2023-04-20T09:53:03;100673.47;;;19.51;29.40
71126;BME280;58785;55.566;38.058;2023-04-20T09:55:30;100681.06;;;19.41;29.39
71126;BME280;58785;55.566;38.058;2023-04-20T09:57:57;100678.34;;;19.41;29.61
71126;BME280;58785;55.566;38.058;2023-04-20T10:00:24;100672.22;;;19.32;29.61
71126;BME280;58785;55.566;38.058;2023-04-20T10:02:50;100679.34;;;19.18;29.55
71126;BME280;58785;55.566;38.058;2023-04-20T10:05:15;100675.41;;;19.21;29.68
71126;BME280;58785;55.566;38.058;2023-04-20T10:07:41;100677.03;;;19.15;29.57
71126;BME280;58785;55.566;38.058;2023-04-20T10:10:12;100673.25;;;18.95;29.78
71126;BME280;58785;55.566;38.058;2023-04-20T10:12:59;100670.63;;;18.87;29.91
71126;BME280;58785;55.566;38.058;2023-04-20T10:15:40;100677.69;;;18.73;29.44
71126;BME280;58785;55.566;38.058;2023-04-20T10:18:22;100674.34;;;18.56;30.22
71126;BME280;58785;55.566;38.058;2023-04-20T10:20:50;100680.84;;;18.62;30.12
71126;BME280;58785;55.566;38.058;2023-04-20T10:23:16;100670.50;;;18.51;30.13
71126;BME280;58785;55.566;38.058;2023-04-20T10:25:54;100664.63;;;18.47;29.99
71126;BME280;58785;55.566;38.058;2023-04-20T10:28:20;100661.94;;;18.47;29.80
71126;BME280;58785;55.566;38.058;2023-04-20T10:30:50;100665.59;;;18.54;29.76
71126;BME280;58785;55.566;38.058;2023-04-20T10:33:17;100656.25;;;18.57;29.92
71126;BME280;58785;55.566;38.058;2023-04-20T10:35:49;100653.38;;;18.73;29.97
71126;BME280;58785;55.566;38.058;2023-04-20T10:38:32;100656.81;;;18.97;29.82
71126;BME280;58785;55.566;38.058;2023-04-20T10:41:11;100660.22;;;19.20;29.67
71126;BME280;58785;55.566;38.058;2023-04-20T10:43:38;100661.66;;;19.16;29.43
71126;BME280;58785;55.566;38.058;2023-04-20T10:46:19;100655.13;;;19.10;29.64
71126;BME280;58785;55.566;38.058;2023-04-20T10:48:56;100650.75;;;19.09;29.81
71126;BME280;58785;55.566;38.058;2023-04-20T10:51:23;100655.78;;;18.98;29.94
71126;BME280;58785;55.566;38.058;2023-04-20T10:54:05;100652.06;;;18.99;30.07
71126;BME280;58785;55.566;38.058;2023-04-20T10:56:39;100648.03;;;19.09;29.97
71126;BME280;58785;55.566;38.058;2023-04-20T10:59:07;100639.34;;;19.14;29.92
71126;BME280;58785;55.566;38.058;2023-04-20T11:01:33;100648.19;;;19.22;29.60
71126;BME280;58785;55.566;38.058;2023-04-20T11:04:00;100649.53;;;19.33;29.81
71126;BME280;58785;55.566;38.058;2023-04-20T11:06:26;100635.28;;;19.39;29.39
71126;BME280;58785;55.566;38.058;2023-04-20T11:08:53;100639.97;;;19.52;29.09
71126;BME280;58785;55.566;38.058;2023-04-20T11:11:19;100630.66;;;19.55;29.26
71126;BME280;58785;55.566;38.058;2023-04-20T11:13:45;100623.28;;;19.48;28.99
71126;BME280;58785;55.566;38.058;2023-04-20T11:16:12;100626.31;;;19.39;28.75
71126;BME280;58785;55.566;38.058;2023-04-20T11:18:53;100624.06;;;19.42;28.31
71126;BME280;58785;55.566;38.058;2023-04-20T11:21:20;100606.63;;;19.45;28.57
71126;BME280;58785;55.566;38.058;2023-04-20T11:23:47;100603.53;;;19.48;28.90
71126;BME280;58785;55.566;38.058;2023-04-20T11:26:13;100606.22;;;19.48;28.52
71126;BME280;58785;55.566;38.058;2023-04-20T11:28:50;100617.88;;;19.27;28.06
71126;BME280;58785;55.566;38.058;2023-04-20T11:31:16;100606.16;;;19.20;28.53
71126;BME280;58785;55.566;38.058;2023-04-20T11:33:43;100603.25;;;19.21;28.99
71126;BME280;58785;55.566;38.058;2023-04-20T11:36:17;100605.06;;;19.36;29.11
71126;BME280;58785;55.566;38.058;2023-04-20T11:38:43;100592.69;;;19.48;28.94
71126;BME280;58785;55.566;38.058;2023-04-20T11:41:09;100590.97;;;19.62;29.11
71126;BME280;58785;55.566;38.058;2023-04-20T11:43:34;100591.88;;;19.69;29.23
71126;BME280;58785;55.566;38.058;2023-04-20T11:46:00;100586.66;;;19.46;29.02
71126;BME280;58785;55.566;38.058;2023-04-20T11:48:30;100586.34;;;19.34;28.48
71126;BME280;58785;55.566;38.058;2023-04-20T11:50:56;100584.19;;;19.30;28.95
71126;BME280;58785;55.566;38.058;2023-04-20T11:53:22;100584.72;;;19.18;29.33
71126;BME280;58785;55.566;38.058;2023-04-20T11:55:48;100560.09;;;18.92;29.30
71126;BME280;58785;55.566;38.058;2023-04-20T11:58:14;100581.75;;;18.77;29.63
71126;BME280;58785;55.566;38.058;2023-04-20T12:00:39;100577.53;;;18.60;29.84
71126;BME280;58785;55.566;38.058;2023-04-20T12:03:06;100565.81;;;18.53;29.56
71126;BME280;58785;55.566;38.058;2023-04-20T12:05:31;100568.16;;;18.56;29.55
71126;BME280;58785;55.566;38.058;2023-04-20T12:07:57;100564.78;;;18.54;29.79
71126;BME280;58785;55.566;38.058;2023-04-20T12:10:23;100572.63;;;18.49;29.55
71126;BME280;58785;55.566;38.058;2023-04-20T12:12:49;100562.00;;;18.47;29.55
71126;BME280;58785;55.566;38.058;2023-04-20T12:15:15;100551.13;;;18.41;29.56
71126;BME280;58785;55.566;38.058;2023-04-20T12:17:41;100563.69;;;18.33;29.84
71126;BME280;58785;55.566;38.058;2023-04-20T12:20:07;100555.13;;;18.30;30.28
71126;BME280;58785;55.566;38.058;2023-04-20T12:22:35;100545.25;;;18.37;29.93
71126;BME280;58785;55.566;38.058;2023-04-20T12:25:01;100551.66;;;18.51;29.37
71126;BME280;58785;55.566;38.058;2023-04-20T12:27:28;100552.41;;;18.59;29.32
71126;BME280;58785;55.566;38.058;2023-04-20T12:29:54;100550.09;;;18.56;29.18
71126;BME280;58785;55.566;38.058;2023-04-20T12:32:19;100538.78;;;18.53;29.06
71126;BME280;58785;55.566;38.058;2023-04-20T12:34:45;100539.00;;;18.51;29.29
71126;BME280;58785;55.566;38.058;2023-04-20T12:37:11;100528.38;;;18.50;29.56
71126;BME280;58785;55.566;38.058;2023-04-20T12:39:36;100531.72;;;18.52;29.43
71126;BME280;58785;55.566;38.058;2023-04-20T12:42:02;100527.34;;;18.51;29.52
71126;BME280;58785;55.566;38.058;2023-04-20T12:44:28;100528.28;;;18.43;29.95
71126;BME280;58785;55.566;38.058;2023-04-20T12:46:54;100525.41;;;18.30;29.85